Time;durP1;ratioP1;P1;durP2;ratioP2;P2;SDS_P1;SDS_P2;PMS_P1;PMS_P2;Temp;Humidity;BMP_temperature;BMP_pressure;BME280_temperature;BME280_humidity;BME280_pressure;Samples;Min_cycle;Max_cycle;Signal;HPM_P1;HPM_P2
2021/07/11 00:01:10;;;;;;;12.77;10.23;;;25.90;74.40;;;;;;5057164;28;20122;-62
2021/07/11 00:03:36;;;;;;;11.32;10.02;;;25.90;74.60;;;;;;5057275;28;20029;-62
2021/07/11 00:06:02;;;;;;;10.90;9.77;;;25.80;74.80;;;;;;5057809;28;20110;-62
2021/07/11 00:08:28;;;;;;;12.50;11.02;;;25.80;75.20;;;;;;5057657;28;20029;-62
2021/07/11 00:10:53;;;;;;;11.80;10.30;;;25.80;75.60;;;;;;5057427;28;20052;-62
2021/07/11 00:13:19;;;;;;;12.82;10.65;;;25.80;76.10;;;;;;5057584;28;20044;-62
2021/07/11 00:15:45;;;;;;;13.38;11.30;;;25.70;76.40;;;;;;5057948;28;20867;-62
2021/07/11 00:18:11;;;;;;;13.27;10.48;;;25.70;76.80;;;;;;5057170;28;20032;-62
2021/07/11 00:20:37;;;;;;;12.00;10.70;;;25.70;76.60;;;;;;5057929;28;20028;-62
2021/07/11 00:23:03;;;;;;;11.60;10.10;;;25.70;76.50;;;;;;5058667;28;20083;-62
2021/07/11 00:25:28;;;;;;;12.55;10.45;;;25.70;76.50;;;;;;5058151;28;20104;-62
2021/07/11 00:27:55;;;;;;;11.68;10.30;;;25.60;76.80;;;;;;5057364;28;20028;-62
2021/07/11 00:30:21;;;;;;;11.52;10.27;;;25.60;77.00;;;;;;5057165;28;20048;-62
2021/07/11 00:32:47;;;;;;;11.30;10.15;;;25.60;77.20;;;;;;5052990;28;20071;-62
2021/07/11 00:35:13;;;;;;;12.23;10.93;;;25.60;77.50;;;;;;5058576;28;20028;-62
2021/07/11 00:37:39;;;;;;;11.85;10.65;;;25.50;77.50;;;;;;5057458;28;20075;-62
2021/07/11 00:40:06;;;;;;;12.18;10.93;;;25.50;77.50;;;;;;5054950;28;20037;-62
2021/07/11 00:42:31;;;;;;;12.05;10.82;;;25.50;77.70;;;;;;5048052;28;20365;-62
2021/07/11 00:44:57;;;;;;;11.57;10.38;;;25.50;77.90;;;;;;5057859;28;20032;-61
2021/07/11 00:47:23;;;;;;;11.50;10.35;;;25.50;78.00;;;;;;5057557;28;20017;-61
2021/07/11 00:49:48;;;;;;;13.70;10.98;;;25.40;78.30;;;;;;5056984;28;20028;-61
2021/07/11 00:52:14;;;;;;;12.13;10.93;;;25.40;78.30;;;;;;5057730;28;20025;-61
2021/07/11 00:54:40;;;;;;;12.73;10.25;;;25.40;78.10;;;;;;5058113;28;20045;-61
2021/07/11 00:57:06;;;;;;;11.20;10.00;;;25.30;78.00;;;;;;5057609;28;20090;-61
2021/07/11 00:59:37;;;;;;;11.73;10.48;;;25.30;78.40;;;;;;5057229;28;20078;-61
2021/07/11 01:02:18;;;;;;;12.45;10.23;;;25.30;78.20;;;;;;5057307;28;20032;-61
2021/07/11 01:05:07;;;;;;;12.32;9.68;;;25.20;78.10;;;;;;5057249;28;20025;-61
2021/07/11 01:07:45;;;;;;;13.48;10.52;;;25.20;78.10;;;;;;5057672;28;20514;-61
2021/07/11 01:10:22;;;;;;;13.45;10.07;;;25.20;78.80;;;;;;5057032;28;20045;-61
2021/07/11 01:12:50;;;;;;;12.30;10.52;;;25.20;78.70;;;;;;5056911;28;20048;-61
2021/07/11 01:15:16;;;;;;;12.30;10.85;;;25.20;78.90;;;;;;5057496;28;20040;-61
2021/07/11 01:17:42;;;;;;;14.25;11.18;;;25.20;79.20;;;;;;5056414;28;20515;-61
2021/07/11 01:20:17;;;;;;;10.80;9.77;;;25.20;79.50;;;;;;5057434;28;20136;-61
2021/07/11 01:22:47;;;;;;;13.45;10.40;;;25.10;79.10;;;;;;5043432;28;20037;-61
2021/07/11 01:25:33;;;;;;;11.23;8.75;;;25.10;79.10;;;;;;5055855;28;20021;-61
2021/07/11 01:28:02;;;;;;;11.98;8.85;;;25.10;78.50;;;;;;5056217;28;20025;-61
2021/07/11 01:30:28;;;;;;;10.57;9.48;;;25.10;78.30;;;;;;5045481;28;20021;-61
2021/07/11 01:32:54;;;;;;;11.18;9.63;;;25.10;78.60;;;;;;5057431;28;20072;-61
2021/07/11 01:35:20;;;;;;;11.30;10.20;;;25.10;78.80;;;;;;5057582;28;20481;-61
2021/07/11 01:37:46;;;;;;;12.48;10.77;;;25.10;78.90;;;;;;5057204;28;20365;-61
2021/07/11 01:40:13;;;;;;;12.25;10.90;;;25.00;78.90;;;;;;5057208;28;20013;-61
2021/07/11 01:42:40;;;;;;;11.55;10.30;;;25.00;79.10;;;;;;5056862;28;20453;-61
2021/07/11 01:45:07;;;;;;;11.30;10.10;;;25.00;78.90;;;;;;5056288;28;20017;-61
2021/07/11 01:47:34;;;;;;;15.75;8.23;;;25.00;78.60;;;;;;5055152;28;20056;-61
2021/07/11 01:50:00;;;;;;;10.93;9.32;;;25.00;78.50;;;;;;5056062;28;20021;-61
2021/07/11 01:52:26;;;;;;;13.20;9.23;;;25.00;77.60;;;;;;5056222;28;20025;-61
2021/07/11 01:54:53;;;;;;;9.38;8.13;;;25.00;77.40;;;;;;5056142;28;20381;-61
2021/07/11 01:57:18;;;;;;;9.27;8.27;;;25.00;77.40;;;;;;5055323;28;20025;-61
2021/07/11 01:59:44;;;;;;;11.40;8.30;;;25.00;77.20;;;;;;5055383;28;20481;-61
2021/07/11 02:02:10;;;;;;;14.35;7.75;;;25.00;76.70;;;;;;5055976;28;20025;-61
2021/07/11 02:04:35;;;;;;;9.02;7.78;;;25.00;76.40;;;;;;5055775;28;20029;-61
2021/07/11 02:07:01;;;;;;;8.63;7.72;;;24.90;76.10;;;;;;5056261;28;20010;-61
2021/07/11 02:09:27;;;;;;;10.10;8.02;;;24.90;75.90;;;;;;5056220;28;20045;-61
2021/07/11 02:11:54;;;;;;;8.82;7.97;;;24.90;75.80;;;;;;5056052;28;20071;-61
2021/07/11 02:14:26;;;;;;;11.07;8.13;;;25.00;76.10;;;;;;5054666;28;20063;-61
2021/07/11 02:16:57;;;;;;;9.60;7.90;;;25.00;75.90;;;;;;5053084;28;20461;-61
2021/07/11 02:19:23;;;;;;;9.27;8.18;;;25.00;75.90;;;;;;5056467;28;20056;-61
2021/07/11 02:21:50;;;;;;;8.40;7.38;;;25.00;75.60;;;;;;5056111;28;20025;-61
2021/07/11 02:24:17;;;;;;;8.85;7.75;;;25.00;75.30;;;;;;5056063;28;20053;-61
2021/07/11 02:26:44;;;;;;;8.95;7.45;;;25.00;75.10;;;;;;5054707;28;20033;-61
2021/07/11 02:29:11;;;;;;;10.75;8.05;;;25.00;75.30;;;;;;5056129;28;20048;-61
2021/07/11 02:31:40;;;;;;;8.52;7.70;;;25.00;75.20;;;;;;5057436;28;20477;-61
2021/07/11 02:34:08;;;;;;;8.45;7.63;;;25.00;75.00;;;;;;5064157;28;20029;-61
2021/07/11 02:36:34;;;;;;;7.80;6.63;;;25.00;74.50;;;;;;5055970;28;20029;-61
2021/07/11 02:39:07;;;;;;;9.95;7.25;;;25.00;73.90;;;;;;5055555;28;20036;-61
2021/07/11 02:41:35;;;;;;;8.90;7.05;;;25.00;73.70;;;;;;5055943;28;20127;-61
2021/07/11 02:44:06;;;;;;;9.57;7.07;;;25.10;73.90;;;;;;5055742;28;20037;-61
2021/07/11 02:46:35;;;;;;;8.30;6.68;;;25.10;74.10;;;;;;5054343;28;20019;-61
2021/07/11 02:49:03;;;;;;;7.97;7.18;;;25.10;73.60;;;;;;5056217;28;20025;-61
2021/07/11 02:51:33;;;;;;;7.25;6.40;;;25.10;73.50;;;;;;5056060;28;20013;-61
2021/07/11 02:54:00;;;;;;;8.05;6.85;;;25.20;73.30;;;;;;5056347;28;20059;-61
2021/07/11 02:56:33;;;;;;;7.70;6.57;;;25.20;73.00;;;;;;5056173;28;20029;-61
2021/07/11 02:59:00;;;;;;;8.35;6.70;;;25.20;72.40;;;;;;5055529;28;20071;-61
2021/07/11 03:01:28;;;;;;;7.95;6.10;;;25.30;72.20;;;;;;5060046;28;20021;-61
2021/07/11 03:03:57;;;;;;;9.07;6.97;;;25.30;71.60;;;;;;5058960;28;20044;-61
2021/07/11 03:06:22;;;;;;;7.82;6.53;;;25.30;71.20;;;;;;5058999;28;20030;-61
2021/07/11 03:08:48;;;;;;;10.85;6.90;;;25.40;71.00;;;;;;5059098;28;20028;-61
2021/07/11 03:11:15;;;;;;;9.18;6.35;;;25.40;70.50;;;;;;5058010;28;20037;-61
2021/07/11 03:13:41;;;;;;;8.40;6.32;;;25.40;70.20;;;;;;5059833;28;20362;-61
2021/07/11 03:16:08;;;;;;;7.68;6.22;;;25.50;69.90;;;;;;5059136;28;20029;-61
2021/07/11 03:18:37;;;;;;;8.90;6.40;;;25.50;69.80;;;;;;5055665;28;20028;-61
2021/07/11 03:21:06;;;;;;;7.65;6.20;;;25.50;69.30;;;;;;5059301;28;20033;-61
2021/07/11 03:23:34;;;;;;;8.57;6.03;;;25.60;69.00;;;;;;5058716;28;20060;-61
2021/07/11 03:26:00;;;;;;;6.82;6.13;;;25.60;68.80;;;;;;5059381;28;20037;-61
2021/07/11 03:28:29;;;;;;;6.70;6.00;;;25.70;68.60;;;;;;5059023;28;20108;-61
2021/07/11 03:30:58;;;;;;;9.73;6.13;;;25.80;68.70;;;;;;5059180;28;20091;-61
2021/07/11 03:33:26;;;;;;;6.80;5.47;;;25.90;68.90;;;;;;5059244;28;20029;-61
2021/07/11 03:35:59;;;;;;;6.53;5.43;;;26.10;69.30;;;;;;5058677;28;20124;-61
2021/07/11 03:38:35;;;;;;;6.40;5.40;;;26.30;69.20;;;;;;5054651;28;20022;-61
2021/07/11 03:41:02;;;;;;;6.10;5.47;;;26.70;68.50;;;;;;5051635;28;20029;-61
2021/07/11 03:43:33;;;;;;;6.93;5.82;;;27.10;68.00;;;;;;5045429;28;20037;-61
2021/07/11 03:46:02;;;;;;;6.55;5.55;;;27.50;67.10;;;;;;5058907;28;20017;-61
2021/07/11 03:48:38;;;;;;;7.28;5.93;;;28.00;65.90;;;;;;5058096;28;20075;-61
2021/07/11 03:51:06;;;;;;;5.60;5.05;;;28.60;65.10;;;;;;5049693;28;20029;-61
2021/07/11 03:53:34;;;;;;;5.35;4.85;;;29.40;63.70;;;;;;5058379;28;20499;-61
2021/07/11 03:56:02;;;;;;;5.70;4.95;;;30.30;61.90;;;;;;5059141;28;20350;-61
2021/07/11 03:58:32;;;;;;;6.95;5.35;;;31.30;60.20;;;;;;5058377;28;20055;-61
2021/07/11 04:00:59;;;;;;;5.45;4.85;;;32.20;58.20;;;;;;5058058;28;20029;-61
2021/07/11 04:03:26;;;;;;;6.10;4.55;;;33.10;56.50;;;;;;5044985;28;20039;-62
2021/07/11 04:05:52;;;;;;;5.93;5.07;;;34.00;54.90;;;;;;5058608;28;20043;-62
2021/07/11 04:08:20;;;;;;;7.13;4.95;;;34.80;53.60;;;;;;5058379;28;20021;-62
2021/07/11 04:10:47;;;;;;;6.72;5.50;;;35.60;52.40;;;;;;5058168;28;20507;-62
2021/07/11 04:13:14;;;;;;;7.53;6.32;;;36.30;52.00;;;;;;5058523;28;20063;-62
2021/07/11 04:15:41;;;;;;;8.68;6.18;;;36.90;51.20;;;;;;5059360;28;20061;-62
2021/07/11 04:18:11;;;;;;;9.30;6.75;;;37.50;50.90;;;;;;5058307;28;20045;-62
2021/07/11 04:20:38;;;;;;;7.15;6.45;;;38.00;50.20;;;;;;5058715;28;20052;-62
2021/07/11 04:23:04;;;;;;;9.02;7.15;;;38.60;49.60;;;;;;5057954;28;20036;-62
2021/07/11 04:25:35;;;;;;;10.20;8.00;;;39.10;48.90;;;;;;5057495;28;20053;-62
2021/07/11 04:28:02;;;;;;;8.98;6.97;;;39.40;48.70;;;;;;5057887;28;20033;-62
2021/07/11 04:30:29;;;;;;;7.68;6.97;;;39.80;47.50;;;;;;5057032;28;20059;-62
2021/07/11 04:32:55;;;;;;;7.78;6.72;;;40.20;46.70;;;;;;5057207;28;20480;-62
2021/07/11 04:35:21;;;;;;;7.63;6.82;;;40.50;46.30;;;;;;5056600;28;20028;-62
2021/07/11 04:37:47;;;;;;;7.22;6.53;;;40.80;46.10;;;;;;5055401;28;20025;-62
2021/07/11 04:40:14;;;;;;;7.68;6.47;;;41.20;45.80;;;;;;5056519;28;20017;-62
2021/07/11 04:42:39;;;;;;;7.10;6.40;;;41.40;45.40;;;;;;5056119;28;20107;-62
2021/07/11 04:45:06;;;;;;;7.45;6.07;;;41.70;45.10;;;;;;5055862;28;20092;-62
2021/07/11 04:47:32;;;;;;;7.60;6.28;;;41.90;44.60;;;;;;5055176;28;20048;-62
2021/07/11 04:49:57;;;;;;;6.43;5.78;;;42.10;44.40;;;;;;5056287;28;20048;-62
2021/07/11 04:52:24;;;;;;;7.53;6.35;;;42.40;44.00;;;;;;5056506;28;20029;-62
2021/07/11 04:54:50;;;;;;;7.85;5.90;;;42.60;43.60;;;;;;5056916;28;20029;-62
2021/07/11 04:57:15;;;;;;;6.07;5.50;;;42.70;43.10;;;;;;5056188;28;20028;-62
2021/07/11 04:59:41;;;;;;;6.15;5.55;;;42.90;43.00;;;;;;5056321;28;20049;-62
2021/07/11 05:02:07;;;;;;;5.55;5.00;;;43.00;42.70;;;;;;5056232;28;20017;-62
2021/07/11 05:04:33;;;;;;;7.78;5.55;;;43.20;42.40;;;;;;5056467;28;20357;-62
2021/07/11 05:06:59;;;;;;;6.43;5.28;;;43.30;42.10;;;;;;5056518;28;20116;-62
2021/07/11 05:09:24;;;;;;;7.63;5.50;;;43.30;41.60;;;;;;5056164;28;20029;-62
2021/07/11 05:11:50;;;;;;;5.65;5.05;;;43.50;41.70;;;;;;5056361;28;20025;-62
2021/07/11 05:14:16;;;;;;;6.13;4.25;;;43.60;41.50;;;;;;5056037;28;20063;-62
2021/07/11 05:16:42;;;;;;;4.63;4.13;;;43.70;40.70;;;;;;5055671;28;20045;-62
2021/07/11 05:19:09;;;;;;;4.25;3.83;;;43.70;39.70;;;;;;5055418;28;20040;-62
2021/07/11 05:21:35;;;;;;;5.95;4.05;;;43.80;39.40;;;;;;5055529;28;20029;-62
2021/07/11 05:24:01;;;;;;;4.20;3.80;;;43.80;38.80;;;;;;5055652;28;20040;-62
2021/07/11 05:26:27;;;;;;;4.97;3.88;;;43.80;38.30;;;;;;5055755;28;20056;-62
2021/07/11 05:28:53;;;;;;;4.00;3.60;;;43.70;37.90;;;;;;5055765;28;20044;-62
2021/07/11 05:31:18;;;;;;;5.82;4.15;;;43.30;38.10;;;;;;5056053;28;20041;-62
2021/07/11 05:33:44;;;;;;;4.90;4.30;;;42.60;38.60;;;;;;5056264;28;20523;-62
2021/07/11 05:36:11;;;;;;;5.97;4.55;;;41.80;39.20;;;;;;5055893;28;20120;-62
2021/07/11 05:38:39;;;;;;;7.32;5.07;;;40.90;40.10;;;;;;5042566;28;20454;-62
2021/07/11 05:41:05;;;;;;;7.15;4.75;;;39.90;40.80;;;;;;5056227;28;20033;-62
2021/07/11 05:43:31;;;;;;;5.22;4.72;;;39.00;41.90;;;;;;5055953;28;20025;-62
2021/07/11 05:45:57;;;;;;;5.70;5.10;;;38.20;43.50;;;;;;5055847;28;20059;-62
2021/07/11 05:48:23;;;;;;;10.15;5.07;;;37.40;44.40;;;;;;5055172;28;20442;-63
2021/07/11 05:50:49;;;;;;;7.15;5.35;;;36.70;45.10;;;;;;5055165;28;20017;-62
2021/07/11 05:53:15;;;;;;;7.43;5.30;;;36.10;45.70;;;;;;5054655;28;20079;-62
2021/07/11 05:55:41;;;;;;;7.95;5.80;;;35.60;46.60;;;;;;5054518;28;20029;-62
2021/07/11 05:58:08;;;;;;;6.40;5.80;;;35.20;46.90;;;;;;5054610;28;20099;-61
2021/07/11 06:00:34;;;;;;;6.90;6.20;;;34.70;47.60;;;;;;5055370;28;20488;-61
2021/07/11 06:03:00;;;;;;;6.70;5.63;;;34.40;48.70;;;;;;5054917;28;20063;-61
2021/07/11 06:05:26;;;;;;;5.82;5.22;;;34.10;49.30;;;;;;5054913;28;20052;-61
2021/07/11 06:07:51;;;;;;;8.25;6.47;;;33.80;50.00;;;;;;5055263;28;20043;-61
2021/07/11 06:10:17;;;;;;;7.18;5.93;;;33.60;50.60;;;;;;5055306;28;20037;-61
2021/07/11 06:12:44;;;;;;;6.43;5.72;;;33.30;51.10;;;;;;5055519;28;20053;-61
2021/07/11 06:15:10;;;;;;;8.20;6.72;;;33.10;51.30;;;;;;5054915;28;20017;-61
2021/07/11 06:17:36;;;;;;;7.00;6.07;;;32.90;51.90;;;;;;5055219;28;20036;-61
2021/07/11 06:20:08;;;;;;;7.00;6.30;;;32.80;52.50;;;;;;5054986;28;20102;-61
2021/07/11 06:22:34;;;;;;;7.57;6.18;;;32.60;52.80;;;;;;5054401;28;20036;-61
2021/07/11 06:25:06;;;;;;;7.63;6.65;;;32.50;52.80;;;;;;5054331;28;20025;-61
2021/07/11 06:27:39;;;;;;;7.65;6.40;;;32.30;53.10;;;;;;5054387;28;20045;-61
2021/07/11 06:30:06;;;;;;;6.80;6.20;;;32.20;53.50;;;;;;5054750;28;20029;-61
2021/07/11 06:32:32;;;;;;;9.50;6.57;;;32.10;53.90;;;;;;5054612;28;20086;-61
2021/07/11 06:34:58;;;;;;;7.22;6.40;;;32.00;54.30;;;;;;5057320;28;20035;-61
2021/07/11 06:37:24;;;;;;;7.20;6.50;;;31.90;54.60;;;;;;5058628;28;20080;-61
2021/07/11 06:39:49;;;;;;;7.35;6.47;;;31.80;54.90;;;;;;5058898;28;20025;-61
2021/07/11 06:42:15;;;;;;;7.55;6.65;;;31.80;55.00;;;;;;5058364;28;20457;-61
2021/07/11 06:44:41;;;;;;;9.98;7.00;;;31.70;55.30;;;;;;5058023;28;20017;-61
2021/07/11 06:47:08;;;;;;;7.35;6.57;;;31.60;55.60;;;;;;5058252;28;20081;-61
2021/07/11 06:49:34;;;;;;;9.23;7.68;;;31.50;55.60;;;;;;5058120;28;20032;-61
2021/07/11 06:52:01;;;;;;;7.03;6.30;;;31.50;55.90;;;;;;5057963;28;20017;-61
2021/07/11 06:54:27;;;;;;;7.05;6.35;;;31.50;56.00;;;;;;5058686;28;20037;-61
2021/07/11 06:56:52;;;;;;;7.00;6.35;;;31.40;56.20;;;;;;5058456;28;20036;-61
2021/07/11 06:59:18;;;;;;;7.32;6.63;;;31.40;56.50;;;;;;5058144;28;20445;-61
2021/07/11 07:01:44;;;;;;;8.23;7.13;;;31.40;56.70;;;;;;5054607;28;20025;-61
2021/07/11 07:04:09;;;;;;;8.07;6.60;;;31.30;56.80;;;;;;5055877;28;20033;-61
2021/07/11 07:06:35;;;;;;;8.07;6.85;;;31.30;56.80;;;;;;5054929;28;20017;-61
2021/07/11 07:09:01;;;;;;;7.80;6.38;;;31.30;56.90;;;;;;5055468;28;20461;-61
2021/07/11 07:11:27;;;;;;;7.65;6.95;;;31.20;57.10;;;;;;5050049;28;20040;-61
2021/07/11 07:13:52;;;;;;;7.88;7.05;;;31.20;57.20;;;;;;5040950;28;20025;-61
2021/07/11 07:16:18;;;;;;;7.03;6.32;;;31.20;57.20;;;;;;5055317;28;20124;-61
2021/07/11 07:18:44;;;;;;;8.52;6.53;;;31.20;57.30;;;;;;5056174;28;20035;-61
2021/07/11 07:21:09;;;;;;;7.35;5.75;;;31.20;57.40;;;;;;5056201;28;20052;-61
2021/07/11 07:23:35;;;;;;;7.75;6.95;;;31.20;57.40;;;;;;5056205;28;20029;-61
2021/07/11 07:26:01;;;;;;;8.20;6.43;;;31.20;57.40;;;;;;5055715;28;20041;-61
2021/07/11 07:28:26;;;;;;;7.03;6.32;;;31.10;57.30;;;;;;5057083;28;20116;-61
2021/07/11 07:30:52;;;;;;;7.05;6.35;;;31.20;57.40;;;;;;5057315;28;20155;-61
2021/07/11 07:33:18;;;;;;;7.07;6.38;;;31.20;57.40;;;;;;5057417;28;20415;-61
2021/07/11 07:35:44;;;;;;;7.85;6.70;;;31.10;57.40;;;;;;5057326;28;20029;-61
2021/07/11 07:38:09;;;;;;;8.63;5.80;;;31.10;57.30;;;;;;5057480;28;20044;-61
2021/07/11 07:40:35;;;;;;;6.50;5.90;;;31.10;57.30;;;;;;5057673;28;20025;-61
2021/07/11 07:43:01;;;;;;;7.32;6.55;;;31.20;57.80;;;;;;5057024;28;20420;-61
2021/07/11 07:45:27;;;;;;;6.57;5.80;;;31.10;57.60;;;;;;5056096;28;20083;-61
2021/07/11 07:47:53;;;;;;;7.90;6.28;;;31.20;57.60;;;;;;5057194;28;20029;-61
2021/07/11 07:50:19;;;;;;;7.32;5.90;;;31.20;57.80;;;;;;5057679;28;20031;-61
2021/07/11 07:52:45;;;;;;;6.57;5.50;;;31.20;57.80;;;;;;5057153;28;20025;-61
2021/07/11 07:55:11;;;;;;;8.57;6.40;;;31.20;57.60;;;;;;5057336;28;20028;-61
2021/07/11 07:57:37;;;;;;;6.72;5.78;;;31.20;58.00;;;;;;5056976;28;20049;-61
2021/07/11 08:00:11;;;;;;;6.05;5.38;;;31.20;58.00;;;;;;5056429;28;20059;-61
2021/07/11 08:02:38;;;;;;;8.27;5.82;;;31.20;57.80;;;;;;5056654;28;20059;-61
2021/07/11 08:05:05;;;;;;;6.75;5.95;;;31.20;57.50;;;;;;5057097;28;20032;-61
2021/07/11 08:07:31;;;;;;;6.18;5.53;;;31.20;57.30;;;;;;5056418;28;20128;-61
2021/07/11 08:09:56;;;;;;;6.03;5.43;;;31.30;57.60;;;;;;5057032;28;20113;-61
2021/07/11 08:12:22;;;;;;;6.20;5.22;;;31.30;57.90;;;;;;5053164;28;20113;-61
2021/07/11 08:14:48;;;;;;;7.82;5.53;;;31.30;58.10;;;;;;5046872;28;20353;-61
2021/07/11 08:17:14;;;;;;;8.18;5.53;;;31.20;58.00;;;;;;5057114;28;20040;-62
2021/07/11 08:19:40;;;;;;;6.00;5.40;;;31.30;58.10;;;;;;5056996;28;20024;-61
2021/07/11 08:22:06;;;;;;;6.63;5.35;;;31.30;58.00;;;;;;5056267;28;20040;-61
2021/07/11 08:24:31;;;;;;;6.28;5.60;;;31.30;57.80;;;;;;5056872;28;20440;-61
2021/07/11 08:26:57;;;;;;;7.43;5.78;;;31.20;57.70;;;;;;5056285;28;20040;-61
2021/07/11 08:29:23;;;;;;;6.57;5.07;;;31.30;57.70;;;;;;5056988;28;20463;-61
2021/07/11 08:31:48;;;;;;;6.63;5.32;;;31.20;57.60;;;;;;5056698;28;20430;-61
2021/07/11 08:34:14;;;;;;;5.95;5.13;;;31.20;57.70;;;;;;5055897;28;20017;-61
2021/07/11 08:36:40;;;;;;;6.28;5.22;;;31.20;58.00;;;;;;5056596;28;20104;-61
2021/07/11 08:39:05;;;;;;;8.32;5.40;;;31.20;58.10;;;;;;5056186;28;20079;-61
2021/07/11 08:41:32;;;;;;;6.10;5.40;;;31.10;58.10;;;;;;5055937;28;20076;-61
2021/07/11 08:43:58;;;;;;;6.32;5.40;;;31.10;57.90;;;;;;5056129;28;20356;-61
2021/07/11 08:46:23;;;;;;;6.35;5.07;;;31.10;57.50;;;;;;5056098;28;20051;-61
2021/07/11 08:48:51;;;;;;;5.30;4.80;;;31.10;57.60;;;;;;5056214;28;20029;-61
2021/07/11 08:51:18;;;;;;;6.72;5.70;;;31.10;57.50;;;;;;5056065;28;20029;-61
2021/07/11 08:53:46;;;;;;;5.70;5.15;;;31.00;57.50;;;;;;5055977;28;20151;-61
2021/07/11 08:56:23;;;;;;;5.75;5.25;;;31.00;57.60;;;;;;5056460;28;20048;-61
2021/07/11 08:58:54;;;;;;;6.20;5.60;;;31.00;58.00;;;;;;5055433;28;20039;-61
2021/07/11 09:01:25;;;;;;;6.10;5.38;;;31.00;57.30;;;;;;5056028;28;20025;-61
2021/07/11 09:04:06;;;;;;;6.28;5.68;;;31.00;57.30;;;;;;5055943;28;20025;-61
2021/07/11 09:07:05;;;;;;;5.70;5.10;;;31.00;57.20;;;;;;5056096;28;20404;-61
2021/07/11 09:09:35;;;;;;;6.28;5.00;;;31.00;57.10;;;;;;5055206;28;20036;-61
2021/07/11 09:12:05;;;;;;;7.68;4.90;;;30.90;56.60;;;;;;5055757;28;20029;-61
2021/07/11 09:14:35;;;;;;;5.60;5.10;;;30.90;56.40;;;;;;5056511;28;20476;-61
2021/07/11 09:17:02;;;;;;;6.60;5.30;;;30.90;56.20;;;;;;5056136;28;20104;-61
2021/07/11 09:19:41;;;;;;;6.28;5.18;;;30.90;56.00;;;;;;5071080;28;20380;-62
2021/07/11 09:22:15;;;;;;;6.53;5.55;;;30.90;56.70;;;;;;5057759;28;20077;-62
2021/07/11 09:25:00;;;;;;;8.77;5.15;;;30.80;56.10;;;;;;5071915;28;20372;-62
2021/07/11 09:27:31;;;;;;;5.55;5.05;;;30.80;56.20;;;;;;5071858;28;20055;-62
2021/07/11 09:30:02;;;;;;;6.47;4.78;;;30.80;56.60;;;;;;5071821;28;20032;-62
2021/07/11 09:32:31;;;;;;;5.65;5.05;;;30.70;55.90;;;;;;5071529;28;20476;-62
2021/07/11 09:35:09;;;;;;;5.75;5.00;;;30.70;55.40;;;;;;5071260;28;20065;-62
2021/07/11 09:37:39;;;;;;;5.20;4.70;;;30.70;55.30;;;;;;5064573;28;20484;-62
2021/07/11 09:40:07;;;;;;;5.00;4.50;;;30.70;55.60;;;;;;5072010;28;20104;-62
2021/07/11 09:42:32;;;;;;;4.72;4.32;;;30.70;54.40;;;;;;5054912;28;20603;-62
2021/07/11 09:45:00;;;;;;;5.63;5.05;;;30.60;53.90;;;;;;5065119;28;20028;-62
2021/07/11 09:47:28;;;;;;;5.43;4.75;;;30.60;54.50;;;;;;5068633;28;20473;-62
2021/07/11 09:50:07;;;;;;;7.90;5.25;;;30.60;54.40;;;;;;5066894;28;20104;-62
2021/07/11 09:52:34;;;;;;;5.73;4.30;;;30.60;54.40;;;;;;5070409;28;20032;-62
2021/07/11 09:55:07;;;;;;;5.72;4.40;;;30.60;54.50;;;;;;5071216;28;20017;-62
2021/07/11 09:57:39;;;;;;;7.93;4.65;;;30.50;54.40;;;;;;5066051;28;20029;-62
2021/07/11 10:00:10;;;;;;;6.28;4.93;;;30.50;54.10;;;;;;5063709;28;20376;-62
2021/07/11 10:02:37;;;;;;;6.38;4.78;;;30.50;54.00;;;;;;5070958;28;20020;-62
2021/07/11 10:05:05;;;;;;;6.57;4.70;;;30.50;53.90;;;;;;5071502;28;20099;-62
2021/07/11 10:07:32;;;;;;;4.70;4.30;;;30.50;54.20;;;;;;5071265;28;20047;-62
2021/07/11 10:09:58;;;;;;;5.22;4.40;;;30.50;53.60;;;;;;5070947;28;20024;-62
2021/07/11 10:12:24;;;;;;;6.22;4.78;;;30.50;53.50;;;;;;5044017;28;20025;-62
2021/07/11 10:14:50;;;;;;;5.88;5.10;;;30.40;53.70;;;;;;5060524;28;20048;-62
2021/07/11 10:17:17;;;;;;;5.20;4.63;;;30.40;53.10;;;;;;5070635;28;20037;-62
2021/07/11 10:19:48;;;;;;;6.15;4.68;;;30.40;53.30;;;;;;5062293;28;20104;-62
2021/07/11 10:22:15;;;;;;;5.93;4.45;;;30.40;53.20;;;;;;5066663;28;20021;-62
2021/07/11 10:24:43;;;;;;;4.90;4.50;;;30.40;53.80;;;;;;5070548;28;20025;-62
2021/07/11 10:27:28;;;;;;;5.50;4.35;;;30.40;53.50;;;;;;5070658;28;20024;-62
2021/07/11 10:29:56;;;;;;;5.70;4.90;;;30.40;53.40;;;;;;5063203;28;20033;-62
2021/07/11 10:32:32;;;;;;;6.40;4.68;;;30.40;53.10;;;;;;5057488;28;20032;-62
2021/07/11 10:35:13;;;;;;;5.22;4.70;;;30.40;53.00;;;;;;5057642;28;20044;-62
2021/07/11 10:37:42;;;;;;;;;;;30.40;52.80;;;;;;5050624;28;20025;-62
2021/07/11 10:40:10;;;;;;;4.20;3.80;;;30.30;52.90;;;;;;5057796;28;20009;-62
2021/07/11 10:42:36;;;;;;;5.78;4.63;;;30.30;53.10;;;;;;5033695;28;20036;-62
2021/07/11 10:45:10;;;;;;;6.32;4.60;;;30.30;53.40;;;;;;5049303;28;20389;-62
2021/07/11 10:47:36;;;;;;;5.28;4.78;;;30.40;53.40;;;;;;5053897;28;20028;-62
2021/07/11 10:50:07;;;;;;;5.30;4.80;;;30.40;53.20;;;;;;5051704;28;20083;-62
2021/07/11 10:52:35;;;;;;;;;;;30.40;53.20;;;;;;5056727;28;20029;-62
2021/07/11 10:55:08;;;;;;;5.25;4.30;;;30.30;53.10;;;;;;5057477;28;19904;-62
2021/07/11 10:57:36;;;;;;;5.90;4.63;;;30.30;52.70;;;;;;5057611;28;20021;-62
2021/07/11 11:00:28;;;;;;;5.40;4.38;;;30.30;52.30;;;;;;5057303;28;20454;-62
2021/07/11 11:02:54;;;;;;;5.40;4.68;;;30.30;52.30;;;;;;5057167;28;20056;-62
2021/07/11 11:05:24;;;;;;;6.00;4.90;;;30.30;52.10;;;;;;5057054;28;20025;-62
2021/07/11 11:08:07;;;;;;;6.45;4.70;;;30.30;52.20;;;;;;5057487;28;20346;-62
2021/07/11 11:10:35;;;;;;;6.35;4.68;;;30.30;52.00;;;;;;5055159;28;20029;-62
2021/07/11 11:13:05;;;;;;;4.70;4.28;;;30.30;52.20;;;;;;5055687;28;20033;-62
2021/07/11 11:15:47;;;;;;;5.10;4.60;;;30.30;52.30;;;;;;5054916;28;20096;-62
2021/07/11 11:18:23;;;;;;;8.27;4.57;;;30.30;52.10;;;;;;5047009;28;20080;-63
2021/07/11 11:20:54;;;;;;;4.88;4.35;;;30.30;52.10;;;;;;5052494;28;20025;-63
2021/07/11 11:23:21;;;;;;;6.22;4.85;;;30.40;51.70;;;;;;5037888;28;20034;-63
2021/07/11 11:25:47;;;;;;;6.20;4.97;;;30.30;51.50;;;;;;5027991;28;20026;-63
2021/07/11 11:28:13;;;;;;;7.03;5.28;;;30.40;51.20;;;;;;5035908;28;20033;-63
2021/07/11 11:30:41;;;;;;;5.18;4.68;;;30.40;51.20;;;;;;5035991;28;20025;-63
2021/07/11 11:33:07;;;;;;;5.75;5.18;;;30.50;51.70;;;;;;5035827;28;20153;-63
2021/07/11 11:35:35;;;;;;;6.05;5.25;;;30.40;51.50;;;;;;5031643;28;20101;-63
2021/07/11 11:38:04;;;;;;;7.47;5.30;;;30.40;51.30;;;;;;5026966;28;20450;-63
2021/07/11 11:40:34;;;;;;;6.32;5.18;;;30.40;50.90;;;;;;5031979;28;20160;-63
2021/07/11 11:43:03;;;;;;;6.95;4.78;;;30.50;51.00;;;;;;5028916;28;20381;-63
2021/07/11 11:45:30;;;;;;;5.40;4.90;;;30.50;50.90;;;;;;5036118;28;20014;-61
2021/07/11 11:48:04;;;;;;;6.28;5.45;;;30.50;51.00;;;;;;5035500;28;20605;-63
2021/07/11 11:50:31;;;;;;;5.60;5.10;;;30.50;50.80;;;;;;5035102;28;20025;-63
2021/07/11 11:53:04;;;;;;;5.97;5.43;;;30.50;50.80;;;;;;5035385;28;20042;-63
2021/07/11 11:55:30;;;;;;;5.93;5.15;;;30.50;51.00;;;;;;5035882;28;20057;-63
2021/07/11 11:58:07;;;;;;;8.10;4.95;;;30.50;51.00;;;;;;5036331;28;20060;-63
2021/07/11 12:00:34;;;;;;;5.72;4.90;;;30.60;50.90;;;;;;5036324;28;20164;-63
2021/07/11 12:03:05;;;;;;;5.38;4.85;;;30.50;50.80;;;;;;5035900;28;20166;-63
2021/07/11 12:05:33;;;;;;;5.72;5.10;;;30.50;50.60;;;;;;5035750;28;20112;-63
2021/07/11 12:07:59;;;;;;;5.32;4.82;;;30.50;50.60;;;;;;5035548;28;20354;-63
2021/07/11 12:10:27;;;;;;;7.97;5.22;;;30.50;51.00;;;;;;5031979;28;20129;-63
2021/07/11 12:13:01;;;;;;;6.50;5.13;;;30.50;50.90;;;;;;5027418;28;20041;-63
2021/07/11 12:15:37;;;;;;;5.93;5.30;;;30.50;50.90;;;;;;5038594;28;20034;-63
2021/07/11 12:18:06;;;;;;;5.85;5.25;;;30.50;51.30;;;;;;5034374;28;20116;-63
2021/07/11 12:20:33;;;;;;;5.75;5.25;;;30.50;51.10;;;;;;5034951;28;20032;-63
2021/07/11 12:23:02;;;;;;;6.00;5.50;;;30.50;50.60;;;;;;5026564;28;20034;-63
2021/07/11 12:25:31;;;;;;;9.07;5.28;;;30.50;50.60;;;;;;5015781;28;20025;-63
2021/07/11 12:28:03;;;;;;;6.78;5.13;;;30.40;50.40;;;;;;5015827;28;20370;-63
2021/07/11 12:30:38;;;;;;;6.03;5.50;;;30.40;50.10;;;;;;5019552;28;20034;-63
2021/07/11 12:33:07;;;;;;;6.80;5.78;;;30.40;50.20;;;;;;5035501;28;20056;-63
2021/07/11 12:35:43;;;;;;;6.43;5.03;;;30.40;50.60;;;;;;5035408;28;20033;-63
2021/07/11 12:38:08;;;;;;;6.85;5.05;;;30.40;50.40;;;;;;5031736;28;20108;-63
2021/07/11 12:40:36;;;;;;;6.25;5.50;;;30.40;50.40;;;;;;5015937;28;20441;-63
2021/07/11 12:43:20;;;;;;;5.75;4.97;;;30.40;50.30;;;;;;5014459;28;20029;-63
2021/07/11 12:46:11;;;;;;;7.35;5.47;;;30.40;50.80;;;;;;5014649;28;20362;-63
2021/07/11 12:48:42;;;;;;;;;;;30.40;50.80;;;;;;5015571;28;20032;-63
2021/07/11 12:51:33;;;;;;;6.22;5.15;;;30.40;50.90;;;;;;5015190;28;19906;-64